Time,TemperatureF,DewpointF,PressureIn,WindDirection,WindDirectionDegrees,WindSpeedMPH,WindSpeedGustMPH,Humidity,HourlyPrecipIn,Conditions,Clouds,dailyrainin,SoftwareType,DateUTC
2013-01-16 00:00:00,44.5,-8.8,30.04,NE,45,3.6,3.6,1,0.00,,,0.00,WUHU216HW,2013-01-16 05:00:00,
2013-01-16 00:01:00,44.5,-8.8,30.04,NE,45,3.6,3.6,1,0.00,,,0.00,WUHU216HW,2013-01-16 05:01:00,
2013-01-16 00:02:00,44.5,-8.8,30.03,NE,45,3.6,3.6,1,0.00,,,0.00,WUHU216HW,2013-01-16 05:02:00,
2013-01-16 00:03:00,44.5,-8.8,30.03,NE,45,3.6,3.6,1,0.00,,,0.00,WUHU216HW,2013-01-16 05:03:00,
2013-01-16 00:08:00,44.5,-8.8,30.04,NE,45,3.6,3.6,1,0.00,,,0.00,WUHU216HW,2013-01-16 05:08:00,
2013-01-16 00:13:00,44.5,-8.8,30.04,NNE,14,1.5,3.6,1,0.00,,,0.00,WUHU216HW,2013-01-16 05:13:00,
2013-01-16 00:18:00,44.5,-8.8,30.05,NNE,23,2.5,2.5,1,0.00,,,0.00,WUHU216HW,2013-01-16 05:18:00,
2013-01-16 00:23:00,44.5,-8.8,30.04,NNE,23,2.5,2.5,1,0.00,,,0.00,WUHU216HW,2013-01-16 05:23:00,
2013-01-16 00:28:00,44.5,-8.8,30.04,NE,45,1.8,2.5,1,0.00,,,0.00,WUHU216HW,2013-01-16 05:28:00,
2013-01-16 00:33:00,44.5,-8.8,30.04,NE,45,1.1,1.8,1,0.00,,,0.00,WUHU216HW,2013-01-16 05:33:00,
2013-01-16 00:38:00,44.5,-8.8,30.03,East,90,1.3,1.8,1,0.00,,,0.00,WUHU216HW,2013-01-16 05:38:00,
2013-01-16 00:43:00,44.5,-8.8,30.03,ENE,68,0.4,1.3,1,0.00,,,0.00,WUHU216HW,2013-01-16 05:43:00,
2013-01-16 00:48:00,44.5,-8.8,30.02,ENE,68,0.4,1.3,1,0.00,,,0.00,WUHU216HW,2013-01-16 05:48:00,
2013-01-16 00:53:00,44.5,-8.8,30.02,East,90,0.9,0.9,1,0.00,,,0.00,WUHU216HW,2013-01-16 05:53:00,
2013-01-16 00:58:00,44.5,-8.8,30.02,East,90,0.9,0.9,1,0.00,,,0.00,WUHU216HW,2013-01-16 05:58:00,
2013-01-16 01:03:00,44.3,-8.9,30.02,NE,45,2.5,2.5,1,0.00,,,0.00,WUHU216HW,2013-01-16 06:03:00,
2013-01-16 01:08:00,44.3,-8.9,30.02,NE,45,1.3,2.5,1,0.00,,,0.00,WUHU216HW,2013-01-16 06:08:00,
2013-01-16 01:14:00,44.3,-8.9,30.02,NNE,23,2.5,2.5,1,0.00,,,0.00,WUHU216HW,2013-01-16 06:14:00,
2013-01-16 01:19:00,44.3,-8.9,30.02,ESE,113,4.9,4.9,1,0.00,,,0.00,WUHU216HW,2013-01-16 06:19:00,
2013-01-16 01:24:00,44.3,-8.9,30.01,ENE,68,0.2,4.9,1,0.00,,,0.00,WUHU216HW,2013-01-16 06:24:00,
2013-01-16 01:29:00,44.1,-9.1,30.01,ESE,113,4.7,4.7,1,0.00,,,0.00,WUHU216HW,2013-01-16 06:29:00,
2013-01-16 01:34:00,44.1,-9.1,30.01,ENE,68,2.5,4.7,1,0.00,,,0.00,WUHU216HW,2013-01-16 06:34:00,
2013-01-16 01:39:00,44.1,-9.1,30.01,ENE,68,1.6,4.7,1,0.00,,,0.00,WUHU216HW,2013-01-16 06:39:00,
2013-01-16 01:44:00,44.1,-9.1,30.01,NE,45,0.2,2.5,1,0.00,,,0.00,WUHU216HW,2013-01-16 06:44:00,
2013-01-16 01:49:00,44.1,-9.1,30.01,NE,45,0.9,0.9,1,0.00,,,0.00,WUHU216HW,2013-01-16 06:49:00,
2013-01-16 01:54:00,44.1,-9.1,30.01,ESE,113,1.1,1.1,1,0.00,,,0.00,WUHU216HW,2013-01-16 06:54:00,
2013-01-16 01:59:00,44.1,-9.1,30.01,East,90,0.2,1.1,1,0.00,,,0.00,WUHU216HW,2013-01-16 06:59:00,
2013-01-16 02:04:00,44.1,-9.1,30.01,NE,45,0.4,1.1,1,0.00,,,0.00,WUHU216HW,2013-01-16 07:04:00,
2013-01-16 02:09:00,44.1,-9.1,30.02,NNE,18,1.6,2.5,1,0.00,,,0.00,WUHU216HW,2013-01-16 07:09:00,
2013-01-16 02:14:00,44.1,-9.1,30.01,NW,315,2.5,2.5,1,0.00,,,0.00,WUHU216HW,2013-01-16 07:14:00,
2013-01-16 02:19:00,44.1,-9.1,30.01,ENE,68,3.4,3.4,1,0.00,,,0.00,WUHU216HW,2013-01-16 07:19:00,
2013-01-16 02:24:00,44.1,-9.1,30.01,NE,45,1.8,3.4,1,0.00,,,0.00,WUHU216HW,2013-01-16 07:24:00,
2013-01-16 02:29:00,44.1,-9.1,30.01,ENE,60,1.0,1.8,1,0.00,,,0.00,WUHU216HW,2013-01-16 07:29:00,
2013-01-16 02:34:00,44.1,-9.1,30.01,NNE,23,1.8,1.8,1,0.00,,,0.00,WUHU216HW,2013-01-16 07:34:00,
2013-01-16 02:39:00,44.1,-9.1,30.01,NNE,23,1.8,1.8,1,0.00,,,0.00,WUHU216HW,2013-01-16 07:39:00,
2013-01-16 02:44:00,43.9,-9.2,30.01,NNE,23,0.9,1.8,1,0.00,,,0.00,WUHU216HW,2013-01-16 07:44:00,
2013-01-16 02:49:00,43.9,-9.2,30.01,NNE,23,0.9,1.8,1,0.00,,,0.00,WUHU216HW,2013-01-16 07:49:00,
2013-01-16 02:54:00,44.1,-9.1,30.01,NE,45,0.0,0.9,1,0.00,,,0.00,WUHU216HW,2013-01-16 07:54:00,
2013-01-16 02:59:00,44.1,-9.1,30.00,NE,45,0.0,0.9,1,0.00,,,0.00,WUHU216HW,2013-01-16 07:59:00,
2013-01-16 03:04:00,44.1,-9.1,30.01,NE,45,0.0,0.0,1,0.00,,,0.00,WUHU216HW,2013-01-16 08:04:00,
2013-01-16 03:09:00,44.1,-9.1,30.00,NE,45,0.0,0.0,1,0.00,,,0.00,WUHU216HW,2013-01-16 08:09:00,
2013-01-16 03:14:00,44.1,-9.1,30.00,NE,45,0.0,0.0,1,0.00,,,0.00,WUHU216HW,2013-01-16 08:14:00,
2013-01-16 09:23:00,45.0,-8.4,30.01,NE,45,3.4,3.4,1,0.00,,,0.00,WUHU216HW,2013-01-16 14:23:00,
2013-01-16 09:28:00,45.0,-8.4,30.01,NE,45,3.4,3.4,1,0.00,,,0.00,WUHU216HW,2013-01-16 14:28:00,
2013-01-16 09:33:00,45.0,-8.4,30.01,NE,45,3.4,3.4,1,0.00,,,0.00,WUHU216HW,2013-01-16 14:33:00,
2013-01-16 09:38:00,45.0,-8.4,30.01,NE,45,3.4,3.4,1,0.00,,,0.00,WUHU216HW,2013-01-16 14:38:00,
2013-01-16 11:39:00,47.2,-6.7,30.00,NE,45,4.5,4.5,1,0.00,,,0.00,WUHU216HW,2013-01-16 16:39:00,
2013-01-16 11:44:00,47.2,-6.7,30.00,NNW,338,4.9,4.9,1,0.00,,,0.00,WUHU216HW,2013-01-16 16:44:00,
2013-01-16 11:49:00,47.2,-6.7,30.00,NE,45,8.1,8.1,1,0.00,,,0.00,WUHU216HW,2013-01-16 16:49:00,
2013-01-16 11:54:00,47.2,-6.7,29.99,NE,45,2.7,8.1,1,0.00,,,0.00,WUHU216HW,2013-01-16 16:54:00,
2013-01-16 11:59:00,47.2,-6.7,29.99,NNE,32,4.1,8.1,1,0.00,,,0.00,WUHU216HW,2013-01-16 16:59:00,
2013-01-16 12:04:00,47.2,-6.7,29.99,NE,45,3.6,4.7,1,0.00,,,0.00,WUHU216HW,2013-01-16 17:04:00,
2013-01-16 12:09:00,47.2,-6.7,29.99,ENE,68,1.8,3.6,1,0.00,,,0.00,WUHU216HW,2013-01-16 17:09:00,
2013-01-16 12:14:00,47.2,-6.7,29.99,ENE,68,1.8,3.6,1,0.00,,,0.00,WUHU216HW,2013-01-16 17:14:00,
2013-01-16 12:19:00,47.3,-6.5,29.99,ENE,68,1.3,1.8,1,0.00,,,0.00,WUHU216HW,2013-01-16 17:19:00,
2013-01-16 12:24:00,47.3,-6.5,29.99,ENE,68,1.3,1.8,1,0.00,,,0.00,WUHU216HW,2013-01-16 17:24:00,
2013-01-16 12:29:00,47.3,-6.5,29.98,ENE,68,1.3,1.3,1,0.00,,,0.00,WUHU216HW,2013-01-16 17:29:00,
2013-01-16 12:34:00,48.6,-5.5,29.98,ESE,113,0.7,1.3,1,0.00,,,0.00,WUHU216HW,2013-01-16 17:34:00,
2013-01-16 12:39:00,48.6,-5.5,29.98,ESE,113,0.4,1.3,1,0.00,,,0.00,WUHU216HW,2013-01-16 17:39:00,
2013-01-16 12:44:00,48.6,-5.5,29.98,North,0,0.7,0.7,1,0.00,,,0.00,WUHU216HW,2013-01-16 17:44:00,
2013-01-16 12:50:00,48.6,-5.5,29.98,SSE,158,0.7,0.7,1,0.00,,,0.00,WUHU216HW,2013-01-16 17:50:00,
2013-01-16 12:55:00,48.6,-5.5,29.97,ENE,68,1.1,1.1,1,0.00,,,0.00,WUHU216HW,2013-01-16 17:55:00,
2013-01-16 13:00:00,48.8,-5.4,29.98,East,79,0.5,1.1,1,0.00,,,0.00,WUHU216HW,2013-01-16 18:00:00,
2013-01-16 13:05:00,48.8,-5.4,29.97,ESE,113,0.2,1.1,1,0.00,,,0.00,WUHU216HW,2013-01-16 18:05:00,
2013-01-16 13:10:00,49.3,-5.0,29.97,ESE,113,0.4,0.4,1,0.00,,,0.00,WUHU216HW,2013-01-16 18:10:00,
2013-01-16 13:15:00,49.3,-5.0,29.97,NNE,23,0.2,0.4,1,0.00,,,0.00,WUHU216HW,2013-01-16 18:15:00,
2013-01-16 13:20:00,49.3,-5.0,29.97,NNE,23,0.2,0.4,1,0.00,,,0.00,WUHU216HW,2013-01-16 18:20:00,
2013-01-16 13:25:00,49.3,-5.0,29.96,NNE,23,0.0,0.2,1,0.00,,,0.00,WUHU216HW,2013-01-16 18:25:00,
2013-01-16 13:30:00,49.3,-5.0,29.96,SE,135,0.4,0.4,1,0.00,,,0.00,WUHU216HW,2013-01-16 18:30:00,
2013-01-16 13:36:00,49.5,-4.8,29.96,ESE,113,0.4,0.4,1,0.00,,,0.00,WUHU216HW,2013-01-16 18:36:00,
2013-01-16 13:41:00,49.5,-4.8,29.96,ESE,113,0.0,0.4,1,0.00,,,0.00,WUHU216HW,2013-01-16 18:41:00,
2013-01-16 13:45:00,50.0,-4.5,29.95,SE,135,0.9,0.9,1,0.00,,,0.00,WUHU216HW,2013-01-16 18:45:00,
2013-01-16 13:51:00,50.2,-4.3,29.95,SE,135,1.8,1.8,1,0.00,,,0.00,WUHU216HW,2013-01-16 18:51:00,
2013-01-16 13:56:00,50.2,-4.3,29.95,SSE,158,2.0,2.0,1,0.00,,,0.00,WUHU216HW,2013-01-16 18:56:00,
2013-01-16 14:01:00,50.2,-4.3,29.96,SE,135,2.5,2.5,1,0.00,,,0.00,WUHU216HW,2013-01-16 19:01:00,
2013-01-16 14:06:00,50.4,-4.2,29.96,SSE,158,1.6,2.5,1,0.00,,,0.00,WUHU216HW,2013-01-16 19:06:00,
2013-01-16 14:11:00,50.4,-4.2,29.95,SSE,158,1.7,2.5,1,0.00,,,0.00,WUHU216HW,2013-01-16 19:11:00,
2013-01-16 14:16:00,50.4,-4.2,29.96,SE,135,2.2,2.2,1,0.00,,,0.00,WUHU216HW,2013-01-16 19:16:00,
2013-01-16 14:21:00,50.4,-4.2,29.96,SSW,203,1.1,2.2,1,0.00,,,0.00,WUHU216HW,2013-01-16 19:21:00,
2013-01-16 14:26:00,50.6,-4.0,29.95,SSE,158,0.9,2.2,1,0.00,,,0.00,WUHU216HW,2013-01-16 19:26:00,
2013-01-16 14:31:00,50.8,-4.0,29.95,SSE,158,0.7,1.1,1,0.00,,,0.00,WUHU216HW,2013-01-16 19:31:00,
2013-01-16 14:36:00,51.1,-3.6,29.95,SE,135,0.7,1.1,1,0.00,,,0.00,WUHU216HW,2013-01-16 19:36:00,
2013-01-16 14:41:00,51.1,-3.6,29.95,ESE,113,0.4,1.1,1,0.00,,,0.00,WUHU216HW,2013-01-16 19:41:00,
2013-01-16 14:46:00,51.3,-3.5,29.95,ESE,113,0.4,0.7,1,0.00,,,0.00,WUHU216HW,2013-01-16 19:46:00,
2013-01-16 14:51:00,51.5,-3.3,29.96,ESE,113,0.3,0.4,1,0.00,,,0.00,WUHU216HW,2013-01-16 19:51:00,
2013-01-16 14:56:00,51.5,-3.3,29.96,ESE,113,0.2,0.4,1,0.00,,,0.00,WUHU216HW,2013-01-16 19:56:00,
2013-01-16 15:01:00,51.5,-3.3,29.96,ESE,113,0.0,0.2,1,0.00,,,0.00,WUHU216HW,2013-01-16 20:01:00,
2013-01-16 15:06:00,51.5,-3.3,29.96,ESE,113,0.4,0.4,1,0.00,,,0.00,WUHU216HW,2013-01-16 20:06:00,
2013-01-16 15:11:00,51.8,-3.1,29.96,South,180,0.9,0.9,1,0.00,,,0.00,WUHU216HW,2013-01-16 20:11:00,
2013-01-16 15:16:00,52.0,-2.9,29.96,South,180,0.9,0.9,1,0.00,,,0.00,WUHU216HW,2013-01-16 20:16:00,
2013-01-16 15:21:00,51.7,-3.2,29.97,NW,315,0.2,0.9,1,0.00,,,0.00,WUHU216HW,2013-01-16 20:21:00,
2013-01-16 15:26:00,51.3,-3.5,29.97,WNW,293,0.2,0.2,1,0.00,,,0.00,WUHU216HW,2013-01-16 20:26:00,
2013-01-16 15:31:00,51.1,-3.6,29.96,NNW,338,0.4,0.4,1,0.00,,,0.00,WUHU216HW,2013-01-16 20:31:00,
2013-01-16 15:36:00,51.1,-3.6,29.96,NW,315,0.0,0.4,1,0.00,,,0.00,WUHU216HW,2013-01-16 20:36:00,
2013-01-16 15:41:00,51.3,-3.5,29.96,NNW,338,0.2,0.4,1,0.00,,,0.00,WUHU216HW,2013-01-16 20:41:00,
2013-01-16 15:46:00,51.3,-3.5,29.96,North,0,0.7,0.7,1,0.00,,,0.00,WUHU216HW,2013-01-16 20:46:00,
2013-01-16 15:51:00,51.5,-3.3,29.96,NE,45,0.7,0.7,1,0.00,,,0.00,WUHU216HW,2013-01-16 20:51:00,
2013-01-16 15:56:00,51.5,-3.3,29.95,ENE,68,0.4,0.7,1,0.00,,,0.00,WUHU216HW,2013-01-16 20:56:00,
2013-01-16 16:01:00,51.7,-3.2,29.96,SE,135,1.1,1.1,1,0.00,,,0.00,WUHU216HW,2013-01-16 21:01:00,
2013-01-16 16:06:00,51.8,-3.1,29.95,SE,128,0.9,1.1,1,0.00,,,0.00,WUHU216HW,2013-01-16 21:06:00,
2013-01-16 16:12:00,52.0,-2.9,29.95,SE,135,0.4,1.1,1,0.00,,,0.00,WUHU216HW,2013-01-16 21:12:00,
2013-01-16 16:17:00,52.0,-2.9,29.96,SE,135,0.4,0.4,1,0.00,,,0.00,WUHU216HW,2013-01-16 21:17:00,
2013-01-16 16:22:00,52.0,-2.9,29.96,NNE,23,0.4,0.4,1,0.00,,,0.00,WUHU216HW,2013-01-16 21:22:00,
2013-01-16 16:27:00,51.7,-3.2,29.96,NNE,23,0.0,0.4,1,0.00,,,0.00,WUHU216HW,2013-01-16 21:27:00,
2013-01-16 16:32:00,51.7,-3.2,29.96,North,0,0.4,0.4,1,0.00,,,0.00,WUHU216HW,2013-01-16 21:32:00,
2013-01-16 16:37:00,51.7,-3.2,29.96,North,0,0.4,0.4,1,0.00,,,0.00,WUHU216HW,2013-01-16 21:37:00,
2013-01-16 16:42:00,51.5,-3.3,29.97,North,0,0.0,0.4,1,0.00,,,0.00,WUHU216HW,2013-01-16 21:42:00,
2013-01-16 16:47:00,51.5,-3.3,29.96,North,0,0.0,0.4,1,0.00,,,0.00,WUHU216HW,2013-01-16 21:47:00,
2013-01-16 16:52:00,51.5,-3.3,29.97,NNE,23,0.0,0.0,1,0.00,,,0.00,WUHU216HW,2013-01-16 21:52:00,
2013-01-16 16:57:00,51.5,-3.3,29.98,NNE,23,0.0,0.0,1,0.00,,,0.00,WUHU216HW,2013-01-16 21:57:00,
2013-01-16 17:02:00,51.5,-3.3,29.97,North,0,0.2,0.2,1,0.00,,,0.00,WUHU216HW,2013-01-16 22:02:00,
2013-01-16 17:07:00,51.5,-3.3,29.97,North,0,0.2,0.2,1,0.00,,,0.00,WUHU216HW,2013-01-16 22:07:00,
2013-01-16 17:12:00,51.5,-3.3,29.97,North,0,0.2,0.2,1,0.00,,,0.00,WUHU216HW,2013-01-16 22:12:00,
2013-01-16 17:17:00,51.5,-3.3,29.97,North,0,0.2,0.2,1,0.00,,,0.00,WUHU216HW,2013-01-16 22:17:00,
2013-01-16 17:22:00,51.5,-3.3,29.97,North,0,0.2,0.2,1,0.00,,,0.00,WUHU216HW,2013-01-16 22:22:00,